Time;durP1;ratioP1;P1;durP2;ratioP2;P2;SDS_P1;SDS_P2;PMS_P1;PMS_P2;Temp;Humidity;BMP_temperature;BMP_pressure;BME280_temperature;BME280_humidity;BME280_pressure;Samples;Min_cycle;Max_cycle;Signal;HPM_P1;HPM_P2
2021/12/24 00:01:16;;;;;;;12.75;8.50;;;22.40;27.80;;;;;;5131967;27;20137;-66
2021/12/24 00:03:45;;;;;;;9.73;7.22;;;22.40;27.80;;;;;;5114329;27;20130;-66
2021/12/24 00:06:13;;;;;;;9.63;7.53;;;22.40;27.80;;;;;;5129482;27;20513;-67
2021/12/24 00:08:40;;;;;;;10.02;7.75;;;22.40;27.80;;;;;;5131994;27;20085;-66
2021/12/24 00:11:08;;;;;;;9.82;7.90;;;22.40;27.80;;;;;;5131757;27;20101;-69
2021/12/24 00:13:40;;;;;;;9.75;8.38;;;22.40;27.80;;;;;;5113976;27;20047;-66
2021/12/24 00:16:18;;;;;;;9.20;7.93;;;22.30;27.80;;;;;;5129268;27;20130;-66
2021/12/24 00:18:53;;;;;;;9.13;7.60;;;22.40;27.80;;;;;;5131743;27;20047;-66
2021/12/24 00:35:22;;;;;;;9.02;7.20;;;22.30;27.90;;;;;;5130050;27;20051;-67
2021/12/24 00:37:49;;;;;;;9.82;7.68;;;22.30;27.90;;;;;;5130101;27;20093;-66
2021/12/24 00:40:19;;;;;;;11.27;8.05;;;22.30;27.90;;;;;;5131299;27;20518;-67
2021/12/24 00:42:55;;;;;;;9.55;7.40;;;22.30;27.90;;;;;;5113483;27;20087;-66
2021/12/24 00:45:28;;;;;;;9.23;7.50;;;22.30;27.90;;;;;;5129915;27;20043;-66
2021/12/24 00:47:57;;;;;;;10.73;7.32;;;22.30;27.90;;;;;;5130063;27;20047;-66
2021/12/24 00:50:28;;;;;;;9.95;8.20;;;22.30;27.90;;;;;;5131675;27;20071;-66
2021/12/24 00:55:02;;;;;;;10.80;8.00;;;22.30;27.90;;;;;;5131426;27;20051;-66
2021/12/24 00:55:44;;;;;;;8.48;7.25;;;22.30;27.90;;;;;;5129129;27;20096;-66
2021/12/24 00:58:11;;;;;;;10.50;7.57;;;22.30;28.00;;;;;;5130267;27;20445;-66
2021/12/24 01:00:39;;;;;;;9.75;7.90;;;22.30;27.90;;;;;;5112883;27;20047;-67
2021/12/24 01:03:11;;;;;;;10.55;7.57;;;22.30;28.00;;;;;;5131309;28;20047;-66
2021/12/24 01:05:39;;;;;;;9.45;7.60;;;22.30;28.00;;;;;;5129720;28;20097;-66
2021/12/24 01:08:09;;;;;;;10.93;8.02;;;22.30;28.00;;;;;;5130089;28;20096;-66
2021/12/24 01:10:42;;;;;;;8.13;7.30;;;22.30;28.00;;;;;;5130230;28;20519;-66
2021/12/24 01:16:56;;;;;;;8.52;6.65;;;22.30;28.00;;;;;;5128494;27;20046;-66
2021/12/24 01:19:25;;;;;;;8.93;6.75;;;22.30;28.00;;;;;;5131055;28;20580;-66
2021/12/24 01:22:36;;;;;;;10.07;7.45;;;22.30;28.00;;;;;;5130885;28;20047;-66
2021/12/24 01:24:51;;;;;;;9.20;7.40;;;22.30;28.00;;;;;;5130282;28;20047;-66
2021/12/24 01:27:55;;;;;;;9.73;7.30;;;22.30;28.00;;;;;;5128714;28;20484;-66
2021/12/24 01:37:52;;;;;;;9.38;7.32;;;22.30;28.10;;;;;;5130941;27;20059;-66
2021/12/24 01:38:37;;;;;;;8.98;7.03;;;22.30;28.10;;;;;;5133932;27;20138;-66
2021/12/24 01:41:08;;;;;;;9.30;7.43;;;22.30;28.10;;;;;;5135632;27;20055;-66
2021/12/24 01:43:35;;;;;;;8.80;7.13;;;22.30;28.10;;;;;;5134838;27;20054;-67
2021/12/24 01:46:03;;;;;;;8.57;6.97;;;22.30;28.10;;;;;;5114909;27;20095;-66
2021/12/24 01:48:30;;;;;;;7.65;6.80;;;22.30;28.10;;;;;;5115938;27;20059;-66
2021/12/24 01:50:57;;;;;;;8.50;7.10;;;22.30;28.10;;;;;;5134405;27;20113;-66
2021/12/24 01:53:25;;;;;;;7.65;6.82;;;22.30;28.10;;;;;;5116953;27;20047;-66
2021/12/24 01:55:54;;;;;;;8.82;6.75;;;22.30;28.10;;;;;;5133424;27;20457;-66
2021/12/24 01:58:25;;;;;;;9.38;7.28;;;22.30;28.10;;;;;;5133829;27;20551;-66
2021/12/24 02:00:55;;;;;;;7.60;6.55;;;22.30;28.10;;;;;;5134924;27;20407;-66
2021/12/24 02:03:23;;;;;;;8.68;6.78;;;22.30;28.10;;;;;;5134251;27;20044;-66
2021/12/24 02:05:50;;;;;;;8.18;7.05;;;22.30;28.10;;;;;;5132785;27;20428;-66
2021/12/24 02:08:18;;;;;;;8.90;7.03;;;22.30;28.10;;;;;;5133460;27;20138;-66
2021/12/24 02:10:46;;;;;;;6.88;6.10;;;22.30;28.10;;;;;;5134345;27;20096;-66
2021/12/24 02:13:14;;;;;;;7.85;6.50;;;22.30;28.10;;;;;;5134478;27;20122;-66
2021/12/24 02:16:00;;;;;;;8.70;6.97;;;22.30;28.10;;;;;;5132656;27;20039;-66
2021/12/24 02:28:14;;;;;;;8.07;6.85;;;22.30;28.10;;;;;;5133742;27;20086;-66
2021/12/24 02:29:44;;;;;;;7.25;6.07;;;22.30;28.10;;;;;;5134009;27;20122;-67
2021/12/24 02:32:11;;;;;;;7.75;6.53;;;22.30;28.10;;;;;;5133896;27;20221;-66
2021/12/24 02:34:38;;;;;;;8.40;6.75;;;22.30;28.10;;;;;;5133351;27;20097;-66
2021/12/24 02:37:06;;;;;;;8.32;6.32;;;22.30;28.10;;;;;;5131619;27;20050;-66
2021/12/24 02:39:33;;;;;;;9.15;6.70;;;22.30;28.10;;;;;;5133394;27;20450;-67
2021/12/24 02:42:17;;;;;;;6.95;6.20;;;22.30;28.10;;;;;;5133044;27;20043;-66
2021/12/24 02:44:47;;;;;;;8.93;6.63;;;22.30;28.10;;;;;;5132982;27;20089;-66
2021/12/24 02:47:38;;;;;;;8.77;6.57;;;22.30;28.10;;;;;;5131355;27;20043;-66
2021/12/24 02:55:27;;;;;;;8.10;6.18;;;22.20;28.10;;;;;;5132518;27;20450;-66
2021/12/24 02:57:54;;;;;;;6.25;5.65;;;22.30;28.10;;;;;;5131922;27;20043;-66
2021/12/24 03:00:26;;;;;;;7.22;6.28;;;22.30;28.10;;;;;;5133579;27;20083;-66
2021/12/24 03:02:55;;;;;;;7.20;6.10;;;22.30;28.10;;;;;;5133484;27;20082;-66
2021/12/24 03:05:25;;;;;;;9.57;6.35;;;22.30;28.10;;;;;;5132514;27;20092;-66
2021/12/24 03:07:52;;;;;;;6.93;6.00;;;22.30;28.10;;;;;;5131670;27;20069;-66
2021/12/24 03:10:21;;;;;;;7.05;5.72;;;22.30;28.20;;;;;;5133201;27;20112;-66
2021/12/24 03:12:52;;;;;;;6.95;6.20;;;22.20;28.10;;;;;;5133713;27;20047;-66
2021/12/24 03:15:22;;;;;;;7.07;6.07;;;22.30;28.20;;;;;;5132272;27;20396;-66
2021/12/24 03:17:53;;;;;;;;;;;22.30;28.20;;;;;;5132345;27;20076;-66
2021/12/24 03:20:22;;;;;;;7.75;6.68;;;22.30;28.20;;;;;;5133192;27;19919;-66
2021/12/24 03:23:05;;;;;;;7.65;6.10;;;22.30;28.20;;;;;;5132940;27;20083;-67
2021/12/24 03:25:32;;;;;;;7.45;5.80;;;22.30;28.30;;;;;;5131678;27;20047;-66
2021/12/24 03:28:00;;;;;;;7.82;6.20;;;22.30;28.30;;;;;;5131957;27;20135;-66
2021/12/24 03:30:28;;;;;;;6.00;5.38;;;22.30;28.30;;;;;;5114564;27;20104;-66
2021/12/24 03:32:55;;;;;;;6.65;5.45;;;22.30;28.30;;;;;;5132736;27;20108;-66
2021/12/24 03:35:22;;;;;;;8.05;6.65;;;22.30;28.30;;;;;;5131557;27;20129;-66
2021/12/24 03:37:50;;;;;;;7.18;5.72;;;22.30;28.30;;;;;;5131611;27;20051;-67
2021/12/24 03:40:17;;;;;;;7.88;5.68;;;22.30;28.30;;;;;;5132691;27;20046;-66
2021/12/24 03:42:45;;;;;;;7.55;5.40;;;22.30;28.30;;;;;;5132555;27;20574;-66
2021/12/24 03:45:26;;;;;;;6.80;5.32;;;22.30;28.30;;;;;;5113038;27;20575;-66
2021/12/24 03:47:59;;;;;;;7.55;5.75;;;22.30;28.30;;;;;;5131749;27;20050;-66
2021/12/24 03:50:42;;;;;;;7.13;5.45;;;22.30;28.30;;;;;;5132204;27;20094;-66
2021/12/24 03:55:56;;;;;;;5.85;5.25;;;22.30;28.30;;;;;;5130397;27;20105;-66
2021/12/24 03:58:23;;;;;;;7.13;5.75;;;22.30;28.30;;;;;;5113851;27;20075;-66
2021/12/24 04:00:51;;;;;;;7.60;5.75;;;22.30;28.30;;;;;;5132266;27;20241;-66
2021/12/24 04:03:19;;;;;;;6.95;6.03;;;22.30;28.30;;;;;;5132390;27;20079;-66
2021/12/24 04:05:46;;;;;;;5.25;4.72;;;22.20;28.30;;;;;;5130208;27;20407;-67
2021/12/24 04:08:15;;;;;;;6.85;5.22;;;22.20;28.30;;;;;;5113189;27;20050;-66
2021/12/24 04:10:42;;;;;;;6.22;5.55;;;22.20;28.30;;;;;;5131824;27;20078;-66
2021/12/24 04:13:12;;;;;;;6.03;5.20;;;22.20;28.30;;;;;;5132167;27;20051;-66
2021/12/24 04:15:39;;;;;;;6.70;5.40;;;22.20;28.30;;;;;;5130070;27;20074;-66
2021/12/24 04:18:20;;;;;;;5.78;5.18;;;22.20;28.30;;;;;;5130996;27;20078;-66
2021/12/24 04:26:23;;;;;;;5.65;5.03;;;22.20;28.30;;;;;;5129474;27;20043;-66
2021/12/24 04:28:53;;;;;;;6.10;5.28;;;22.20;28.30;;;;;;5132136;27;20047;-66
2021/12/24 04:31:28;;;;;;;6.78;5.63;;;22.20;28.30;;;;;;5129164;27;20043;-66
2021/12/24 04:33:59;;;;;;;7.15;5.80;;;22.20;28.30;;;;;;5131531;27;20151;-66
2021/12/24 04:37:07;;;;;;;7.28;5.63;;;22.20;28.40;;;;;;5128942;27;20093;-66
2021/12/24 04:39:42;;;;;;;6.90;5.70;;;22.20;28.40;;;;;;5131445;27;20381;-66
2021/12/24 05:01:44;;;;;;;5.30;4.53;;;22.20;28.50;;;;;;5130865;27;20079;-66
2021/12/24 05:04:13;;;;;;;5.70;4.93;;;22.20;28.50;;;;;;5131253;28;20100;-66
2021/12/24 05:06:50;;;;;;;5.07;4.40;;;22.20;28.50;;;;;;5128318;27;20076;-66
2021/12/24 05:09:23;;;;;;;6.07;5.03;;;22.20;28.50;;;;;;5113101;28;20548;-65
2021/12/24 05:11:50;;;;;;;5.55;4.40;;;22.20;28.50;;;;;;5131231;28;20043;-66
2021/12/24 05:14:18;;;;;;;6.50;5.38;;;22.20;28.50;;;;;;5131270;28;20079;-66
2021/12/24 05:16:49;;;;;;;4.88;4.45;;;22.20;28.50;;;;;;5128359;27;20086;-66
2021/12/24 05:22:04;;;;;;;5.07;4.57;;;22.20;28.50;;;;;;5131348;28;20043;-66
2021/12/24 05:24:31;;;;;;;6.00;4.80;;;22.20;28.50;;;;;;5131017;28;20100;-66
2021/12/24 05:27:01;;;;;;;5.22;4.72;;;22.20;28.50;;;;;;5128818;28;20125;-68
2021/12/24 05:29:29;;;;;;;5.45;4.95;;;22.20;28.50;;;;;;5131681;28;20103;-66
2021/12/24 05:31:56;;;;;;;5.65;4.78;;;22.20;28.50;;;;;;5131099;28;20076;-66
2021/12/24 05:34:24;;;;;;;4.88;4.10;;;22.20;28.50;;;;;;5131578;28;20392;-65
2021/12/24 05:36:51;;;;;;;4.35;3.95;;;22.20;28.50;;;;;;5128405;28;20082;-66
2021/12/24 05:39:22;;;;;;;4.85;4.35;;;22.20;28.50;;;;;;5131593;28;20047;-66
2021/12/24 05:41:50;;;;;;;5.05;4.55;;;22.20;28.50;;;;;;5113219;28;20097;-65
2021/12/24 05:44:17;;;;;;;5.25;4.40;;;22.20;28.50;;;;;;5131255;28;20135;-66
2021/12/24 05:46:45;;;;;;;4.88;4.22;;;22.20;28.50;;;;;;5127970;28;20100;-66
2021/12/24 05:49:14;;;;;;;5.03;4.00;;;22.20;28.50;;;;;;5130960;28;20083;-66
2021/12/24 05:51:41;;;;;;;4.22;3.83;;;22.20;28.50;;;;;;5130538;28;20075;-66
2021/12/24 05:54:08;;;;;;;5.50;4.15;;;22.20;28.50;;;;;;5130756;28;20130;-66
2021/12/24 05:56:37;;;;;;;4.43;4.00;;;22.20;28.60;;;;;;5127828;28;20097;-66
2021/12/24 05:59:05;;;;;;;4.15;3.85;;;22.20;28.60;;;;;;5130889;28;20053;-67
2021/12/24 06:01:32;;;;;;;4.68;3.80;;;22.20;28.60;;;;;;5130934;28;20082;-65
2021/12/24 06:04:00;;;;;;;4.88;4.30;;;22.20;28.60;;;;;;5130709;28;20047;-66
2021/12/24 06:06:27;;;;;;;5.13;3.70;;;22.20;28.60;;;;;;5128239;28;20149;-65
2021/12/24 06:08:55;;;;;;;4.13;3.72;;;22.20;28.60;;;;;;5130456;28;20078;-65
2021/12/24 06:11:22;;;;;;;4.07;3.45;;;22.20;28.50;;;;;;5130475;28;20524;-66
2021/12/24 06:13:53;;;;;;;4.38;3.97;;;22.20;28.50;;;;;;5130603;28;20487;-65
2021/12/24 06:16:20;;;;;;;3.50;3.20;;;22.20;28.50;;;;;;5128103;27;20122;-66
2021/12/24 06:18:48;;;;;;;5.28;3.33;;;22.20;28.50;;;;;;5134104;27;20053;-66
2021/12/24 06:21:15;;;;;;;3.65;3.35;;;22.20;28.50;;;;;;5134034;27;20069;-66
2021/12/24 06:23:44;;;;;;;3.97;3.58;;;22.20;28.50;;;;;;5133871;27;20130;-66
2021/12/24 06:26:12;;;;;;;3.75;3.35;;;22.20;28.50;;;;;;5132268;27;20152;-67
2021/12/24 06:28:39;;;;;;;3.85;3.45;;;22.20;28.50;;;;;;5133656;27;20381;-66
2021/12/24 06:31:07;;;;;;;3.63;3.10;;;22.10;28.60;;;;;;5134309;27;20039;-66
2021/12/24 06:33:35;;;;;;;4.15;3.42;;;22.20;28.60;;;;;;5134621;27;20047;-66
2021/12/24 06:36:04;;;;;;;3.53;3.22;;;22.20;28.70;;;;;;5131857;27;20047;-66
2021/12/24 06:38:31;;;;;;;3.53;3.22;;;22.20;28.70;;;;;;5133034;27;20051;-66
2021/12/24 06:40:58;;;;;;;4.15;3.55;;;22.20;28.70;;;;;;5133609;27;20500;-66
2021/12/24 06:43:25;;;;;;;4.22;3.20;;;22.20;28.70;;;;;;5115635;27;20074;-66
2021/12/24 06:45:53;;;;;;;2.85;2.65;;;22.20;28.70;;;;;;5132031;27;20515;-66
2021/12/24 06:48:21;;;;;;;2.97;2.67;;;22.20;28.60;;;;;;5133130;27;20453;-66
2021/12/24 06:50:50;;;;;;;3.38;3.08;;;22.30;28.70;;;;;;5133667;27;20047;-66
2021/12/24 06:53:17;;;;;;;3.00;2.80;;;22.30;28.60;;;;;;5133370;27;20133;-66
2021/12/24 06:55:44;;;;;;;2.88;2.63;;;22.30;28.60;;;;;;5132147;27;20058;-66
2021/12/24 06:58:11;;;;;;;2.92;2.72;;;22.40;28.60;;;;;;5132457;27;20480;-66
2021/12/24 07:00:39;;;;;;;3.05;2.75;;;22.40;28.60;;;;;;5133796;27;20399;-66
2021/12/24 07:03:06;;;;;;;3.28;2.72;;;22.40;28.60;;;;;;5133055;27;20089;-66
2021/12/24 07:05:33;;;;;;;2.92;2.55;;;22.40;28.50;;;;;;5132178;27;20047;-66
2021/12/24 07:08:00;;;;;;;2.97;2.67;;;22.50;28.50;;;;;;5131928;27;20130;-66
2021/12/24 07:10:27;;;;;;;2.85;2.58;;;22.60;28.50;;;;;;5133115;27;20227;-66
2021/12/24 07:12:55;;;;;;;2.65;2.45;;;22.60;28.50;;;;;;5133120;27;20047;-66
2021/12/24 07:15:22;;;;;;;2.47;2.28;;;22.70;28.50;;;;;;5132240;27;20453;-66
2021/12/24 07:17:49;;;;;;;2.40;2.20;;;22.70;28.40;;;;;;5132239;27;20047;-66
2021/12/24 07:20:17;;;;;;;2.80;2.60;;;22.70;28.40;;;;;;5132817;27;20074;-66
2021/12/24 07:22:44;;;;;;;3.22;2.72;;;22.80;28.30;;;;;;5114874;27;20464;-66
2021/12/24 07:25:11;;;;;;;2.30;2.10;;;22.80;28.30;;;;;;5132650;27;20086;-66
2021/12/24 07:27:38;;;;;;;1.98;1.88;;;22.80;28.30;;;;;;5113441;27;20047;-66
2021/12/24 07:30:10;;;;;;;2.40;2.20;;;22.90;28.40;;;;;;5132394;27;20043;-66
2021/12/24 07:32:39;;;;;;;2.65;2.25;;;23.00;28.30;;;;;;5132595;27;20047;-66
2021/12/24 07:35:08;;;;;;;2.47;2.28;;;23.00;28.30;;;;;;5131951;27;20079;-66
2021/12/24 07:37:35;;;;;;;2.53;2.33;;;23.10;28.20;;;;;;5113048;27;20046;-66
2021/12/24 07:40:03;;;;;;;2.10;2.00;;;23.10;28.20;;;;;;5132980;27;20143;-66
2021/12/24 07:42:31;;;;;;;2.30;2.10;;;23.20;28.20;;;;;;5132985;27;20082;-66
2021/12/24 07:45:00;;;;;;;2.05;1.85;;;23.20;28.20;;;;;;5131876;27;20071;-66
2021/12/24 07:47:32;;;;;;;2.03;1.92;;;23.20;28.20;;;;;;5112519;27;20130;-66
2021/12/24 07:50:14;;;;;;;2.72;1.80;;;23.30;28.20;;;;;;5132094;27;20043;-66
2021/12/24 07:56:22;;;;;;;1.90;1.80;;;23.40;28.10;;;;;;5130249;27;20147;-68
2021/12/24 07:58:49;;;;;;;2.15;1.92;;;23.50;28.10;;;;;;5132525;27;20088;-66
2021/12/24 08:01:17;;;;;;;2.63;2.42;;;23.50;28.00;;;;;;5132264;27;20561;-66
2021/12/24 08:03:45;;;;;;;1.90;1.80;;;23.50;28.00;;;;;;5131664;27;20050;-66
2021/12/24 08:06:12;;;;;;;1.80;1.70;;;23.60;28.00;;;;;;5130136;27;20450;-66
2021/12/24 08:08:39;;;;;;;1.65;1.55;;;23.60;28.00;;;;;;5131617;27;20492;-66
2021/12/24 08:11:06;;;;;;;2.28;1.70;;;23.60;28.40;;;;;;5113841;27;20096;-66
2021/12/24 08:13:33;;;;;;;1.63;1.52;;;23.70;28.00;;;;;;5132253;27;20051;-66
2021/12/24 08:16:01;;;;;;;1.98;1.80;;;23.70;27.90;;;;;;5130725;27;20105;-66
2021/12/24 08:18:28;;;;;;;1.50;1.40;;;23.80;28.00;;;;;;5131610;27;20399;-67
2021/12/24 08:20:55;;;;;;;1.60;1.50;;;23.80;28.40;;;;;;5131914;27;20039;-66
2021/12/24 08:23:22;;;;;;;1.55;1.45;;;23.90;27.90;;;;;;5131513;27;20047;-66
2021/12/24 08:25:53;;;;;;;1.67;1.55;;;23.90;27.90;;;;;;5130154;27;20508;-66
2021/12/24 08:28:20;;;;;;;1.75;1.65;;;23.90;27.90;;;;;;5131022;27;20082;-66
2021/12/24 08:30:47;;;;;;;1.73;1.63;;;24.00;27.90;;;;;;5131866;27;20126;-66
2021/12/24 08:33:15;;;;;;;1.77;1.67;;;24.00;27.80;;;;;;5131901;27;20445;-66
2021/12/24 08:35:43;;;;;;;1.73;1.63;;;24.10;27.90;;;;;;5130550;27;20039;-66
2021/12/24 08:38:10;;;;;;;1.80;1.70;;;24.10;27.90;;;;;;5130724;27;20046;-66
2021/12/24 08:40:37;;;;;;;1.88;1.75;;;24.10;27.80;;;;;;5130788;27;20170;-66
2021/12/24 08:43:04;;;;;;;1.60;1.50;;;24.20;27.80;;;;;;5131599;27;20101;-66
2021/12/24 08:45:31;;;;;;;1.80;1.70;;;24.20;27.80;;;;;;5129842;27;20511;-67
2021/12/24 08:47:59;;;;;;;1.77;1.67;;;24.20;27.80;;;;;;5130120;27;20377;-66
2021/12/24 08:50:26;;;;;;;2.33;1.58;;;24.30;27.80;;;;;;5131148;27;20094;-66
2021/12/24 08:52:53;;;;;;;1.73;1.63;;;24.30;27.80;;;;;;5113323;27;20126;-66
2021/12/24 08:55:20;;;;;;;1.73;1.63;;;24.30;27.80;;;;;;5130340;27;20096;-66
2021/12/24 08:57:47;;;;;;;1.67;1.58;;;24.40;27.80;;;;;;5129906;27;20057;-66
2021/12/24 09:00:15;;;;;;;1.58;1.48;;;24.40;27.80;;;;;;5131381;27;20121;-66
2021/12/24 09:02:43;;;;;;;1.58;1.48;;;24.40;27.80;;;;;;5131181;27;20094;-66
2021/12/24 09:05:11;;;;;;;1.10;1.10;;;24.50;27.80;;;;;;5130392;28;20047;-66
2021/12/24 09:07:38;;;;;;;1.25;1.25;;;24.50;27.80;;;;;;5130201;28;20051;-67
2021/12/24 09:10:06;;;;;;;1.45;1.35;;;24.60;27.80;;;;;;5112766;28;20483;-66
2021/12/24 09:12:33;;;;;;;1.55;1.45;;;24.60;27.80;;;;;;5130992;28;20043;-66
2021/12/24 09:15:01;;;;;;;1.33;1.20;;;24.60;27.70;;;;;;5130390;28;20130;-67
2021/12/24 09:17:29;;;;;;;1.92;1.55;;;24.70;27.80;;;;;;5129931;28;20122;-67
2021/12/24 09:19:57;;;;;;;1.52;1.42;;;24.70;27.70;;;;;;5131277;28;20122;-66
2021/12/24 09:22:30;;;;;;;1.13;1.13;;;24.70;27.70;;;;;;5131469;28;20077;-66
2021/12/24 09:24:58;;;;;;;1.80;1.70;;;24.70;27.70;;;;;;5130593;28;20105;-66
2021/12/24 09:27:26;;;;;;;1.08;1.08;;;24.80;27.70;;;;;;5129413;28;20047;-66
2021/12/24 09:29:54;;;;;;;1.20;1.17;;;24.80;27.70;;;;;;5130999;28;20428;-67
2021/12/24 09:32:21;;;;;;;1.25;1.20;;;24.80;27.70;;;;;;5096478;28;20075;-66
2021/12/24 09:34:48;;;;;;;1.40;1.30;;;24.90;27.70;;;;;;5130585;28;20100;-66
2021/12/24 09:37:15;;;;;;;0.93;0.90;;;24.90;27.70;;;;;;5094155;28;20057;-66
2021/12/24 09:39:42;;;;;;;1.13;1.13;;;24.90;27.70;;;;;;5131060;28;20092;-66
2021/12/24 09:42:10;;;;;;;1.25;1.25;;;24.90;27.70;;;;;;5130889;28;20086;-66
2021/12/24 09:44:37;;;;;;;1.10;1.10;;;24.90;27.70;;;;;;5130959;28;20075;-66
2021/12/24 09:47:05;;;;;;;1.50;1.17;;;25.00;27.70;;;;;;5128731;28;20134;-66
2021/12/24 09:49:32;;;;;;;0.88;0.88;;;25.00;27.70;;;;;;5131264;28;20043;-66
2021/12/24 09:52:02;;;;;;;1.00;1.00;;;25.00;27.70;;;;;;5131892;27;20130;-67
2021/12/24 09:54:30;;;;;;;1.20;1.20;;;25.10;27.70;;;;;;5134947;27;20086;-67
2021/12/24 09:56:58;;;;;;;1.05;0.93;;;25.10;27.70;;;;;;5132228;27;20082;-66
2021/12/24 09:59:26;;;;;;;2.42;1.40;;;25.10;27.60;;;;;;5116761;27;20043;-66
2021/12/24 10:02:01;;;;;;;1.10;1.10;;;25.20;27.60;;;;;;5134875;27;20063;-67
2021/12/24 10:04:32;;;;;;;1.30;1.20;;;25.20;27.60;;;;;;5134852;27;20089;-66
2021/12/24 10:07:11;;;;;;;1.00;1.00;;;25.30;27.60;;;;;;5131993;27;20047;-67
2021/12/24 10:09:49;;;;;;;1.27;1.00;;;25.30;27.60;;;;;;5134622;27;20094;-66
2021/12/24 10:12:24;;;;;;;0.93;0.93;;;25.40;27.60;;;;;;5134493;27;20047;-66
2021/12/24 10:14:57;;;;;;;1.20;1.10;;;25.40;27.50;;;;;;5134233;27;20051;-66
2021/12/24 10:17:31;;;;;;;1.15;1.10;;;25.40;27.50;;;;;;5132706;27;20039;-66
2021/12/24 10:20:10;;;;;;;1.02;1.02;;;25.40;27.50;;;;;;5134708;27;20055;-66
2021/12/24 10:22:47;;;;;;;1.40;1.30;;;25.50;27.50;;;;;;5134700;27;20212;-66
2021/12/24 10:25:15;;;;;;;1.40;0.85;;;25.50;27.50;;;;;;5133322;27;20550;-67
2021/12/24 10:27:44;;;;;;;1.10;1.02;;;25.50;27.50;;;;;;5132564;27;20130;-66
2021/12/24 10:30:21;;;;;;;1.10;1.10;;;25.50;27.40;;;;;;5134128;27;20463;-66
2021/12/24 10:32:52;;;;;;;1.10;1.10;;;25.60;27.50;;;;;;5116300;27;20130;-66
2021/12/24 10:35:20;;;;;;;;;;;25.60;27.50;;;;;;5133930;27;20357;-66
2021/12/24 10:38:16;;;;;;;1.10;1.05;;;25.70;27.50;;;;;;5132325;27;19978;-66
2021/12/24 10:41:01;;;;;;;1.52;1.20;;;25.70;27.50;;;;;;5115529;27;20181;-66
2021/12/24 10:43:34;;;;;;;1.00;0.77;;;25.70;27.50;;;;;;5134258;27;20055;-66
2021/12/24 10:46:13;;;;;;;1.38;1.27;;;25.70;27.40;;;;;;5132659;27;20047;-66
2021/12/24 10:48:59;;;;;;;1.05;1.00;;;25.80;27.40;;;;;;5133299;27;20055;-66
2021/12/24 10:51:53;;;;;;;1.10;1.10;;;25.80;27.40;;;;;;5133598;27;20051;-66
2021/12/24 10:54:13;;;;;;;0.88;0.88;;;25.80;27.40;;;;;;5133610;27;20509;-67
2021/12/24 10:56:40;;;;;;;0.82;0.82;;;25.80;27.40;;;;;;5131284;27;20446;-66
2021/12/24 10:59:07;;;;;;;0.98;0.98;;;25.90;27.40;;;;;;5133569;27;20096;-67
2021/12/24 11:01:35;;;;;;;1.08;1.08;;;25.90;27.50;;;;;;5133299;27;20057;-66
2021/12/24 11:04:02;;;;;;;0.88;0.88;;;25.90;27.40;;;;;;5114671;27;20057;-67
2021/12/24 11:06:31;;;;;;;1.00;1.00;;;25.90;27.40;;;;;;5131467;27;20181;-67
2021/12/24 11:08:59;;;;;;;0.80;0.80;;;25.90;27.40;;;;;;5133699;27;20097;-66
2021/12/24 11:11:35;;;;;;;1.05;0.95;;;26.00;27.40;;;;;;5132838;27;20075;-66
2021/12/24 11:14:03;;;;;;;1.10;1.10;;;26.00;27.40;;;;;;5133685;27;20096;-66
2021/12/24 11:16:32;;;;;;;0.80;0.80;;;25.90;27.40;;;;;;5112726;27;20047;-66
2021/12/24 11:19:03;;;;;;;0.85;0.85;;;26.00;27.40;;;;;;5115918;27;20453;-67
2021/12/24 11:21:32;;;;;;;0.90;0.90;;;26.00;27.80;;;;;;5133110;27;20097;-66
2021/12/24 11:23:59;;;;;;;1.10;1.10;;;26.00;27.40;;;;;;5114686;27;20552;-67
2021/12/24 11:26:30;;;;;;;0.82;0.82;;;26.00;27.40;;;;;;5131066;27;20138;-67
2021/12/24 11:28:58;;;;;;;0.88;0.88;;;26.00;27.40;;;;;;5133176;27;20047;-67
2021/12/24 11:31:31;;;;;;;1.98;1.55;;;26.00;27.40;;;;;;5132674;27;20047;-67
2021/12/24 11:33:58;;;;;;;0.80;0.80;;;26.00;27.40;;;;;;5132953;27;20089;-68
2021/12/24 11:36:29;;;;;;;0.85;0.85;;;26.00;27.30;;;;;;5130070;27;20035;-66
2021/12/24 11:38:57;;;;;;;;;;;26.10;27.40;;;;;;5133039;27;20133;-66
2021/12/24 11:41:29;;;;;;;0.75;0.75;;;26.00;27.30;;;;;;5132473;27;19935;-66
2021/12/24 11:43:58;;;;;;;0.98;0.98;;;26.10;27.40;;;;;;5132627;27;20108;-66
2021/12/24 11:46:26;;;;;;;0.90;0.90;;;26.10;27.40;;;;;;5131017;27;20130;-66
2021/12/24 11:48:55;;;;;;;0.95;0.95;;;26.10;27.40;;;;;;5132323;27;20047;-67
2021/12/24 11:51:40;;;;;;;0.75;0.75;;;26.20;27.40;;;;;;5132579;27;20544;-67
2021/12/24 11:54:08;;;;;;;0.82;0.82;;;26.20;27.40;;;;;;5131968;27;20050;-67
2021/12/24 11:56:48;;;;;;;0.80;0.80;;;26.20;27.40;;;;;;5130278;27;20079;-67
2021/12/24 11:59:15;;;;;;;1.00;1.00;;;26.20;27.30;;;;;;5132109;27;20544;-67
2021/12/24 12:01:45;;;;;;;1.10;1.00;;;26.20;27.30;;;;;;5114417;27;20047;-66
2021/12/24 12:04:15;;;;;;;0.93;0.93;;;26.30;27.40;;;;;;5132102;27;20453;-66
2021/12/24 12:06:43;;;;;;;0.88;0.88;;;26.30;27.40;;;;;;5130573;27;20260;-67
2021/12/24 12:09:12;;;;;;;0.80;0.80;;;26.30;27.40;;;;;;5132384;27;20043;-67
2021/12/24 12:11:42;;;;;;;0.77;0.77;;;26.30;27.30;;;;;;5131890;27;20057;-67
2021/12/24 12:14:31;;;;;;;0.70;0.70;;;26.30;27.30;;;;;;5131815;27;20480;-67
2021/12/24 12:17:01;;;;;;;0.73;0.70;;;26.30;27.40;;;;;;5129778;27;20153;-67
2021/12/24 12:19:47;;;;;;;1.00;0.90;;;26.40;27.40;;;;;;5132058;27;20432;-67
2021/12/24 12:22:47;;;;;;;0.82;0.82;;;26.30;27.40;;;;;;5131793;27;20138;-67
2021/12/24 12:25:31;;;;;;;0.75;0.75;;;26.30;27.50;;;;;;5131586;27;20047;-66
2021/12/24 12:28:01;;;;;;;0.90;0.90;;;26.20;27.50;;;;;;5130563;27;20074;-66
2021/12/24 12:30:36;;;;;;;0.90;0.90;;;26.10;27.50;;;;;;5113959;27;20047;-67
2021/12/24 12:33:19;;;;;;;0.93;0.93;;;26.10;27.70;;;;;;5131781;27;20084;-67
2021/12/24 12:36:06;;;;;;;1.00;0.95;;;26.10;27.80;;;;;;5130760;27;20130;-67
2021/12/24 12:38:39;;;;;;;0.80;0.80;;;26.00;27.80;;;;;;5098888;27;20100;-66
2021/12/24 12:41:33;;;;;;;0.60;0.60;;;26.00;27.90;;;;;;5131488;27;20077;-67
2021/12/24 12:44:11;;;;;;;1.13;1.02;;;26.00;27.90;;;;;;5131098;27;20050;-66
2021/12/24 12:46:41;;;;;;;0.88;0.88;;;25.90;27.90;;;;;;5128815;27;20142;-67
2021/12/24 12:49:16;;;;;;;0.82;0.82;;;25.90;28.00;;;;;;5131608;27;20085;-67
2021/12/24 12:51:56;;;;;;;0.90;0.90;;;25.90;28.10;;;;;;5131577;27;20082;-67
2021/12/24 12:54:39;;;;;;;1.10;1.00;;;25.80;28.00;;;;;;5131231;27;20047;-67
2021/12/24 12:57:31;;;;;;;0.73;0.73;;;25.80;28.00;;;;;;5129694;27;20043;-67
2021/12/24 13:00:18;;;;;;;0.73;0.73;;;25.70;28.00;;;;;;5131176;27;20570;-67
2021/12/24 13:03:07;;;;;;;1.20;0.82;;;25.70;28.00;;;;;;5131559;27;20464;-67
2021/12/24 13:05:56;;;;;;;0.75;0.75;;;25.70;28.10;;;;;;5130393;28;20050;-66
2021/12/24 13:08:26;;;;;;;1.05;0.95;;;25.60;28.10;;;;;;5130375;28;20070;-67
2021/12/24 13:11:00;;;;;;;0.85;0.85;;;25.60;28.10;;;;;;5130239;28;20047;-67
2021/12/24 13:24:22;;;;;;;0.63;0.63;;;25.40;28.20;;;;;;5115697;28;20580;-67
2021/12/24 13:26:50;;;;;;;0.80;0.80;;;25.40;28.20;;;;;;5130263;27;20094;-66
2021/12/24 13:29:17;;;;;;;1.10;1.08;;;25.40;28.20;;;;;;5135038;27;20040;-67
2021/12/24 13:31:56;;;;;;;0.75;0.75;;;25.40;28.30;;;;;;5135200;27;20047;-67
2021/12/24 13:34:24;;;;;;;0.98;0.98;;;25.30;28.30;;;;;;5134828;27;20047;-67
2021/12/24 13:36:54;;;;;;;0.60;0.60;;;25.30;28.30;;;;;;5133377;27;20100;-67
2021/12/24 13:39:23;;;;;;;0.80;0.80;;;25.30;28.30;;;;;;5134921;27;20043;-67
2021/12/24 13:42:04;;;;;;;1.00;1.00;;;25.30;28.40;;;;;;5135216;27;20083;-67
2021/12/24 13:44:34;;;;;;;0.85;0.85;;;25.20;28.30;;;;;;5134692;27;20072;-67
2021/12/24 13:47:17;;;;;;;;;;;25.20;28.40;;;;;;5133466;27;20126;-67
2021/12/24 13:50:23;;;;;;;1.27;1.20;;;25.10;28.40;;;;;;5135135;27;20006;-67
2021/12/24 13:55:38;;;;;;;0.80;0.80;;;25.10;28.50;;;;;;5134133;27;20043;-66
2021/12/24 13:58:12;;;;;;;0.95;0.80;;;25.10;28.50;;;;;;5134333;27;20078;-67
2021/12/24 14:00:47;;;;;;;1.27;1.17;;;25.10;28.60;;;;;;5134154;27;20092;-66
2021/12/24 14:03:15;;;;;;;1.00;0.90;;;25.00;28.60;;;;;;5134734;27;20487;-66
2021/12/24 14:05:48;;;;;;;0.75;0.75;;;25.00;28.70;;;;;;5133255;27;20043;-66
2021/12/24 14:08:18;;;;;;;0.95;0.95;;;25.00;28.70;;;;;;5133674;27;20494;-67
2021/12/24 14:10:47;;;;;;;;;;;25.00;28.80;;;;;;5133724;27;20086;-66
2021/12/24 14:13:28;;;;;;;0.95;0.95;;;24.90;28.70;;;;;;5133512;27;20010;-66
2021/12/24 14:16:15;;;;;;;1.33;1.23;;;24.90;28.80;;;;;;5132293;27;20774;-67
2021/12/24 14:18:52;;;;;;;1.02;0.80;;;24.90;28.90;;;;;;5134290;27;20053;-66
2021/12/24 14:21:45;;;;;;;0.82;0.82;;;24.90;29.30;;;;;;5134454;27;20040;-66
2021/12/24 14:24:24;;;;;;;0.70;0.70;;;24.80;28.90;;;;;;5134204;27;20047;-66
2021/12/24 14:26:56;;;;;;;1.33;0.93;;;24.80;28.90;;;;;;5114012;27;20134;-66
2021/12/24 14:29:36;;;;;;;1.25;1.20;;;24.80;29.00;;;;;;5134087;27;20079;-66
2021/12/24 14:32:08;;;;;;;;;;;24.70;29.00;;;;;;5134701;27;20079;-66
2021/12/24 14:34:42;;;;;;;0.93;0.93;;;24.70;29.10;;;;;;5134082;27;19980;-66